Time;durP1;ratioP1;P1;durP2;ratioP2;P2;SDS_P1;SDS_P2;PMS_P1;PMS_P2;Temp;Humidity;BMP_temperature;BMP_pressure;BME280_temperature;BME280_humidity;BME280_pressure;Samples;Min_cycle;Max_cycle;Signal;HPM_P1;HPM_P2
2022/02/24 00:02:00;;;;;;;25.88;4.82;;;;;;;5.08;83.83;99411.94;5063081;28;20051;-73
2022/02/24 00:04:25;;;;;;;23.80;4.70;;;;;;;5.09;83.69;99398.22;5047987;28;20028;-74
2022/02/24 00:06:51;;;;;;;27.67;4.40;;;;;;;5.20;83.57;99403.34;5066647;28;20156;-73
2022/02/24 00:09:16;;;;;;;20.15;4.20;;;;;;;5.29;83.29;99405.03;5066626;28;20085;-73
2022/02/24 00:11:42;;;;;;;24.05;6.20;;;;;;;5.25;83.33;99393.91;5066516;28;20104;-74
2022/02/24 00:14:07;;;;;;;13.10;3.25;;;;;;;5.14;83.32;99396.50;5066694;28;20025;-71
2022/02/24 00:16:33;;;;;;;17.42;3.95;;;;;;;5.20;83.01;99396.50;5066330;28;20033;-72
2022/02/24 00:18:58;;;;;;;18.38;4.43;;;;;;;5.18;83.34;99366.47;5066231;28;20033;-72
2022/02/24 00:21:23;;;;;;;18.15;3.63;;;;;;;5.23;83.18;99379.31;5066303;28;20024;-72
2022/02/24 00:23:49;;;;;;;37.92;4.85;;;;;;;5.18;82.96;99372.47;5066389;28;20049;-74
2022/02/24 00:26:14;;;;;;;19.33;4.95;;;;;;;5.27;83.00;99396.47;5066162;28;20025;-73
2022/02/24 00:28:40;;;;;;;21.90;4.07;;;;;;;5.20;83.14;99386.19;5048079;28;20013;-72
2022/02/24 00:31:08;;;;;;;18.60;4.38;;;;;;;5.25;82.97;99372.44;5066060;28;21334;-74
2022/02/24 00:33:33;;;;;;;23.30;5.10;;;;;;;5.30;82.66;99350.97;5065734;28;20032;-74
2022/02/24 00:35:59;;;;;;;20.83;3.90;;;;;;;5.25;82.89;99368.16;5065878;28;20041;-73
2022/02/24 00:38:24;;;;;;;24.83;5.32;;;;;;;5.29;82.87;99363.84;5065647;28;20031;-72
2022/02/24 00:40:49;;;;;;;16.70;4.50;;;;;;;5.26;82.57;99344.13;5048048;28;20048;-72
2022/02/24 00:43:15;;;;;;;19.38;4.30;;;;;;;5.26;82.80;99344.13;5066170;28;20029;-71
2022/02/24 00:45:40;;;;;;;21.42;3.83;;;;;;;5.33;83.15;99355.28;5065501;28;20033;-72
2022/02/24 00:48:07;;;;;;;28.38;5.35;;;;;;;5.33;82.82;99339.81;5065445;28;20017;-72
2022/02/24 00:50:33;;;;;;;13.00;3.22;;;;;;;5.39;82.66;99338.94;5047508;28;20017;-72
2022/02/24 00:52:58;;;;;;;16.60;3.25;;;;;;;5.40;82.58;99349.22;5065605;28;20016;-74
2022/02/24 00:55:25;;;;;;;23.33;4.93;;;;;;;5.47;82.27;99342.34;5065820;28;20028;-73
2022/02/24 00:57:54;;;;;;;26.05;3.20;;;;;;;5.41;82.08;99337.22;5065495;28;20021;-72
2022/02/24 01:00:19;;;;;;;23.50;4.30;;;;;;;5.44;82.44;99332.06;5065608;28;20499;-73
2022/02/24 01:02:45;;;;;;;23.45;3.90;;;;;;;5.36;82.29;99329.50;5065275;28;20025;-71
2022/02/24 01:05:10;;;;;;;18.20;4.22;;;;;;;5.42;82.25;99332.06;5065476;28;20028;-73
2022/02/24 01:07:36;;;;;;;14.95;3.80;;;;;;;5.45;82.54;99319.16;5047562;28;20031;-72
2022/02/24 01:10:01;;;;;;;19.15;3.70;;;;;;;5.49;82.09;99314.00;5065384;28;20028;-72
2022/02/24 01:12:27;;;;;;;18.17;4.43;;;;;;;5.53;81.85;99289.94;5046971;28;20024;-70
2022/02/24 01:14:53;;;;;;;20.75;3.40;;;;;;;5.42;81.92;99292.59;5064244;28;20035;-73
2022/02/24 01:17:18;;;;;;;31.00;5.85;;;;;;;5.29;82.09;99291.78;5064445;28;20033;-72
2022/02/24 01:19:43;;;;;;;16.85;4.20;;;;;;;5.40;81.83;99313.19;5065175;28;20025;-71
2022/02/24 01:22:10;;;;;;;29.25;4.15;;;;;;;5.54;81.20;99320.00;5064804;28;20238;-73
2022/02/24 01:24:36;;;;;;;17.25;3.10;;;;;;;5.42;81.85;99313.19;5064898;28;20021;-73
2022/02/24 01:27:02;;;;;;;16.05;3.22;;;;;;;5.38;81.92;99290.91;5065083;28;20021;-72
2022/02/24 01:29:27;;;;;;;17.02;3.95;;;;;;;5.45;81.80;99293.44;5064975;28;20025;-74
2022/02/24 01:31:52;;;;;;;31.40;6.00;;;;;;;5.39;81.67;99296.03;5064395;28;20025;-74
2022/02/24 01:34:19;;;;;;;18.85;4.30;;;;;;;5.38;82.00;99285.75;5064767;28;20059;-72
2022/02/24 01:36:45;;;;;;;19.60;4.40;;;;;;;5.30;81.83;99285.78;5064683;28;20045;-74
2022/02/24 01:39:11;;;;;;;14.85;3.00;;;;;;;5.31;81.58;99287.50;5046952;28;20035;-72
2022/02/24 01:41:37;;;;;;;20.00;4.15;;;;;;;5.28;81.65;99270.34;5064654;28;20080;-71
2022/02/24 01:44:13;;;;;;;19.58;3.50;;;;;;;5.38;81.99;99276.31;5046807;28;20017;-71
2022/02/24 01:46:39;;;;;;;29.27;5.72;;;;;;;5.41;81.93;99268.59;5064563;28;20056;-72
2022/02/24 01:49:06;;;;;;;17.88;4.82;;;;;;;5.33;82.11;99262.63;5046579;28;20028;-72
2022/02/24 01:51:33;;;;;;;15.40;3.50;;;;;;;5.36;81.59;99256.59;5064493;28;20081;-73
2022/02/24 01:53:58;;;;;;;20.55;3.25;;;;;;;5.33;81.15;99242.03;5046480;28;20024;-70
2022/02/24 01:56:24;;;;;;;14.63;3.17;;;;;;;5.46;80.84;99253.09;5046229;28;20021;-73
2022/02/24 01:58:49;;;;;;;29.27;5.18;;;;;;;5.40;81.51;99264.28;5064326;28;20465;-74
2022/02/24 02:01:15;;;;;;;20.73;4.72;;;;;;;5.50;81.70;99248.78;5064286;28;20037;-74
2022/02/24 02:03:41;;;;;;;18.20;3.10;;;;;;;5.44;81.52;99239.38;5064013;28;20032;-73
2022/02/24 02:06:07;;;;;;;19.73;3.03;;;;;;;5.49;80.96;99241.94;5064333;28;20027;-73
2022/02/24 02:08:33;;;;;;;25.95;4.18;;;;;;;5.51;81.04;99229.91;5064139;28;20071;-72
2022/02/24 02:10:58;;;;;;;17.25;3.85;;;;;;;5.54;80.53;99230.72;5064157;28;20029;-71
2022/02/24 02:13:24;;;;;;;25.75;4.47;;;;;;;5.54;80.61;99222.16;5064112;28;20032;-72
2022/02/24 02:15:52;;;;;;;20.63;3.40;;;;;;;5.57;80.64;99220.41;5063940;28;20076;-72
2022/02/24 02:18:19;;;;;;;11.77;3.22;;;;;;;5.61;80.83;99207.53;5063656;28;20021;-70
2022/02/24 02:20:45;;;;;;;20.75;4.63;;;;;;;5.62;80.65;99242.69;5045861;28;20024;-70
2022/02/24 02:23:10;;;;;;;11.77;2.55;;;;;;;5.61;80.73;99216.09;5063852;28;20163;-72
2022/02/24 02:25:36;;;;;;;20.80;5.93;;;;;;;5.53;80.25;99225.59;5063825;28;20036;-71
2022/02/24 02:28:01;;;;;;;13.00;4.45;;;;;;;5.60;80.29;99232.41;5063998;28;20466;-71
2022/02/24 02:30:27;;;;;;;11.40;2.25;;;;;;;5.58;80.18;99216.13;5063698;28;20024;-70
2022/02/24 02:32:52;;;;;;;7.95;2.85;;;;;;;5.57;79.91;99245.31;5063475;28;20085;-72
2022/02/24 02:35:17;;;;;;;18.60;3.17;;;;;;;5.57;80.02;99241.00;5045658;28;20045;-71
2022/02/24 02:37:43;;;;;;;18.50;3.50;;;;;;;5.51;79.85;99199.00;5045648;28;20029;-71
2022/02/24 02:40:09;;;;;;;7.40;1.73;;;;;;;5.62;80.33;99188.63;5063720;28;20024;-72
2022/02/24 02:42:35;;;;;;;14.10;3.20;;;;;;;5.66;80.12;99192.88;5063656;28;20039;-72
2022/02/24 02:45:01;;;;;;;15.93;5.30;;;;;;;5.58;80.13;99191.22;5063834;28;20025;-73
2022/02/24 02:47:26;;;;;;;27.80;3.90;;;;;;;5.64;80.16;99184.34;5063300;28;20541;-71
2022/02/24 02:49:51;;;;;;;19.08;3.05;;;;;;;5.70;79.74;99161.94;5063631;28;20021;-71
2022/02/24 02:52:17;;;;;;;26.05;5.53;;;;;;;5.54;80.07;99143.19;5063289;28;20024;-72
2022/02/24 02:54:42;;;;;;;16.88;3.75;;;;;;;5.52;80.65;99162.09;5063478;28;20021;-72
2022/02/24 02:57:07;;;;;;;9.50;2.40;;;;;;;5.47;80.46;99151.84;5063285;28;20495;-71
2022/02/24 02:59:33;;;;;;;25.13;4.03;;;;;;;5.43;80.44;99156.16;5063389;28;20049;-71
2022/02/24 03:01:58;;;;;;;20.38;3.92;;;;;;;5.44;81.03;99150.16;5062747;28;20052;-71
2022/02/24 03:04:23;;;;;;;22.35;4.13;;;;;;;5.46;80.95;99150.97;5063316;28;20530;-71
2022/02/24 03:06:50;;;;;;;17.90;3.35;;;;;;;5.41;80.98;99131.28;5063299;28;20021;-70
2022/02/24 03:09:15;;;;;;;16.45;5.30;;;;;;;5.37;80.62;99139.91;5063214;28;20021;-70
2022/02/24 03:11:41;;;;;;;25.27;5.93;;;;;;;5.38;80.66;99141.63;5063158;28;20081;-73
2022/02/24 03:14:06;;;;;;;16.63;3.95;;;;;;;5.39;80.59;99128.72;5063000;28;20360;-73
2022/02/24 03:16:32;;;;;;;26.02;6.35;;;;;;;5.43;80.82;99116.69;5063281;28;20025;-73
2022/02/24 03:18:57;;;;;;;11.43;2.67;;;;;;;5.39;80.75;99136.44;5062785;28;20551;-73
2022/02/24 03:21:22;;;;;;;26.25;3.78;;;;;;;5.40;80.87;99132.16;5063139;28;20028;-73
2022/02/24 03:23:49;;;;;;;24.27;4.57;;;;;;;5.26;81.26;99109.09;5062965;28;20029;-74
2022/02/24 03:26:17;;;;;;;17.38;3.88;;;;;;;5.12;82.18;99112.63;5063024;28;20033;-75
2022/02/24 03:28:43;;;;;;;26.88;4.80;;;;;;;5.05;82.45;99132.41;5063123;28;20017;-76
2022/02/24 03:31:08;;;;;;;36.92;4.63;;;;;;;4.99;83.32;99113.56;5062683;28;20033;-78
2022/02/24 03:33:33;;;;;;;26.13;4.05;;;;;;;4.98;83.65;99088.72;5062570;28;20021;-76
2022/02/24 03:35:59;;;;;;;25.42;4.05;;;;;;;4.94;84.01;99117.03;5062686;28;20071;-76
2022/02/24 03:38:24;;;;;;;11.60;3.58;;;;;;;4.91;84.23;99106.75;5064685;28;20058;-75
2022/02/24 03:40:50;;;;;;;32.47;4.68;;;;;;;4.81;84.89;99120.53;5067104;28;20027;-73
2022/02/24 03:43:15;;;;;;;16.75;4.13;;;;;;;4.83;84.85;99109.38;5066903;28;20500;-74
2022/02/24 03:45:41;;;;;;;27.20;4.30;;;;;;;4.83;85.03;99108.53;5066977;28;20036;-73
2022/02/24 03:48:06;;;;;;;13.82;3.22;;;;;;;4.86;84.92;99123.94;5048755;28;20025;-71
2022/02/24 03:50:31;;;;;;;25.10;4.70;;;;;;;4.88;85.06;99101.63;5067099;28;20020;-72
2022/02/24 03:52:57;;;;;;;21.38;3.97;;;;;;;4.86;85.00;99103.34;5066782;28;20028;-72
2022/02/24 03:55:22;;;;;;;26.17;4.03;;;;;;;4.96;84.60;99091.31;5066749;28;20029;-71
2022/02/24 03:57:48;;;;;;;17.30;4.00;;;;;;;4.93;84.82;99101.59;5048668;28;20437;-71
2022/02/24 04:00:14;;;;;;;23.92;3.72;;;;;;;4.89;84.54;99072.47;5066591;28;20033;-73
2022/02/24 04:02:39;;;;;;;35.40;4.28;;;;;;;4.88;84.73;99086.22;5066142;28;20499;-70
2022/02/24 04:05:05;;;;;;;24.58;4.38;;;;;;;4.80;85.05;99098.25;5066855;28;20029;-79
2022/02/24 04:07:30;;;;;;;29.80;4.75;;;;;;;4.85;85.22;99093.94;5066771;28;20024;-80
2022/02/24 04:09:56;;;;;;;26.77;4.38;;;;;;;4.81;85.37;99095.69;5067083;28;20025;-80
2022/02/24 04:12:21;;;;;;;19.60;4.53;;;;;;;4.77;85.60;99098.28;5066793;28;20028;-77
2022/02/24 04:14:46;;;;;;;21.83;4.50;;;;;;;4.66;85.87;99086.34;5066537;28;20104;-78
2022/02/24 04:17:13;;;;;;;17.42;3.78;;;;;;;4.60;86.49;99083.78;5066040;28;20041;-77
2022/02/24 04:19:38;;;;;;;22.30;4.18;;;;;;;4.36;86.94;99059.91;5066231;28;20103;-78
2022/02/24 04:22:04;;;;;;;30.75;5.50;;;;;;;4.54;87.18;99091.53;5066300;28;20025;-81
2022/02/24 04:24:29;;;;;;;37.38;6.47;;;;;;;4.54;87.34;99086.38;5066209;28;20024;-83
2022/02/24 04:26:55;;;;;;;27.38;4.95;;;;;;;4.33;87.84;99072.78;5066061;28;20365;-77
2022/02/24 04:29:20;;;;;;;28.70;6.10;;;;;;;4.37;88.18;99078.75;5066042;28;20055;-78
2022/02/24 04:31:46;;;;;;;22.83;4.35;;;;;;;4.33;88.61;99103.59;5065837;28;20029;-76
2022/02/24 04:34:11;;;;;;;29.48;5.65;;;;;;;4.27;88.97;99083.06;5065875;28;20021;-74
2022/02/24 04:36:36;;;;;;;27.30;4.80;;;;;;;4.26;89.47;99081.38;5065696;28;20048;-73
2022/02/24 04:39:02;;;;;;;24.42;5.53;;;;;;;4.24;89.53;99077.97;5065949;28;20080;-75
2022/02/24 04:41:28;;;;;;;20.38;4.20;;;;;;;4.28;89.78;99100.22;5047725;28;20025;-71
2022/02/24 04:43:53;;;;;;;16.75;4.13;;;;;;;4.22;90.21;99085.66;5065867;28;20032;-72
2022/02/24 04:46:18;;;;;;;29.10;5.47;;;;;;;4.16;90.56;99096.84;5065869;28;20013;-73
2022/02/24 04:48:44;;;;;;;33.35;5.85;;;;;;;4.08;90.88;99094.28;5047362;28;20035;-78
2022/02/24 04:51:09;;;;;;;38.15;6.70;;;;;;;4.09;91.05;99131.09;5065984;28;20059;-76
2022/02/24 04:53:34;;;;;;;15.40;2.97;;;;;;;4.01;90.78;99143.13;5065748;28;20025;-77
2022/02/24 04:56:00;;;;;;;16.75;2.85;;;;;;;3.87;89.99;99141.41;5065567;28;20257;-74
2022/02/24 04:58:25;;;;;;;17.98;2.97;;;;;;;3.74;89.70;99132.03;5065423;28;20028;-71
2022/02/24 05:00:51;;;;;;;20.30;3.13;;;;;;;3.58;89.80;99126.88;5065433;28;20111;-73
2022/02/24 05:03:16;;;;;;;10.82;2.15;;;;;;;3.49;89.54;99120.06;5065239;28;20104;-73
2022/02/24 05:05:43;;;;;;;10.85;2.28;;;;;;;3.51;89.45;99125.19;5065517;28;20108;-73
2022/02/24 05:08:08;;;;;;;21.30;3.60;;;;;;;3.31;90.08;99095.25;5065502;28;20086;-71
2022/02/24 05:10:34;;;;;;;0.40;0.40;;;;;;;3.28;89.90;99126.03;5065217;28;20033;-71
2022/02/24 05:12:59;;;;;;;0.40;0.40;;;;;;;3.19;90.22;99127.75;5065034;28;20033;-71
2022/02/24 05:15:25;;;;;;;0.40;0.40;;;;;;;3.16;90.78;99129.44;5065346;28;20025;-72
2022/02/24 05:17:50;;;;;;;0.38;0.38;;;;;;;3.06;91.13;99126.00;5046895;28;20063;-71
2022/02/24 05:20:16;;;;;;;0.40;0.40;;;;;;;3.07;91.49;99136.28;5065363;28;20092;-72
2022/02/24 05:22:43;;;;;;;0.40;0.40;;;;;;;3.14;91.71;99142.28;5047261;28;20020;-73
2022/02/24 05:25:10;;;;;;;0.40;0.40;;;;;;;3.14;91.51;99133.72;5065085;28;20043;-72
2022/02/24 05:27:36;;;;;;;0.30;0.30;;;;;;;3.12;91.75;99145.66;5047131;28;20078;-74
2022/02/24 05:30:03;;;;;;;0.40;0.40;;;;;;;3.08;92.09;99149.97;5065168;28;20427;-72
2022/02/24 05:32:29;;;;;;;0.32;0.32;;;;;;;3.07;92.30;99163.59;5046288;28;20024;-73
2022/02/24 05:34:54;;;;;;;0.40;0.40;;;;;;;3.03;92.03;99157.66;5064451;28;20037;-71
2022/02/24 05:37:21;;;;;;;0.40;0.40;;;;;;;3.02;92.36;99163.59;5064617;28;20051;-70
2022/02/24 05:39:49;;;;;;;0.40;0.40;;;;;;;2.96;92.66;99146.50;5064971;28;20027;-73
2022/02/24 05:42:15;;;;;;;0.40;0.40;;;;;;;3.03;92.62;99151.66;5046424;28;20005;-68
2022/02/24 05:44:40;;;;;;;0.40;0.40;;;;;;;2.99;92.55;99152.50;5064505;28;20055;-70
2022/02/24 05:47:06;;;;;;;0.40;0.40;;;;;;;2.89;92.70;99138.81;5064344;28;20028;-71
2022/02/24 05:49:31;;;;;;;0.40;0.40;;;;;;;2.90;92.74;99145.63;5064271;28;20077;-71
2022/02/24 05:51:57;;;;;;;0.35;0.35;;;;;;;2.93;92.58;99149.06;5064362;28;20100;-71
2022/02/24 05:54:22;;;;;;;0.40;0.40;;;;;;;2.85;92.64;99138.78;5046779;28;20035;-71
2022/02/24 05:56:47;;;;;;;0.50;0.50;;;;;;;2.90;92.95;99149.06;5064517;28;20021;-71
2022/02/24 05:59:13;;;;;;;0.40;0.40;;;;;;;2.80;93.12;99142.19;5064300;28;20027;-70
2022/02/24 06:01:38;;;;;;;0.40;0.40;;;;;;;2.85;93.21;99158.44;5063804;28;20025;-70
2022/02/24 06:04:03;;;;;;;0.40;0.40;;;;;;;2.87;93.00;99146.50;5064056;28;20039;-69
2022/02/24 06:06:29;;;;;;;0.40;0.40;;;;;;;2.84;93.19;99142.19;5046355;28;20025;-68
2022/02/24 06:08:54;;;;;;;0.40;0.40;;;;;;;2.85;93.31;99145.63;5064344;28;20078;-74
2022/02/24 06:11:20;;;;;;;0.38;0.38;;;;;;;2.84;93.35;99147.31;5046219;28;20029;-69
2022/02/24 06:13:46;;;;;;;0.50;0.50;;;;;;;2.80;93.41;99131.94;5046166;28;20473;-69
2022/02/24 06:16:11;;;;;;;0.40;0.40;;;;;;;2.81;93.66;99131.09;5046136;28;20017;-69
2022/02/24 06:18:36;;;;;;;0.30;0.30;;;;;;;2.76;93.71;99123.41;5063369;28;20021;-69
2022/02/24 06:21:02;;;;;;;0.40;0.40;;;;;;;2.85;94.01;99132.81;5063840;28;20542;-70
2022/02/24 06:23:27;;;;;;;0.40;0.40;;;;;;;2.79;93.93;99118.28;5045607;28;20024;-69
2022/02/24 06:25:53;;;;;;;0.40;0.40;;;;;;;2.82;93.89;99100.34;5063724;28;20084;-71
2022/02/24 06:28:19;;;;;;;0.30;0.30;;;;;;;2.80;93.84;99094.34;5063642;28;20077;-69
2022/02/24 06:30:44;;;;;;;0.40;0.40;;;;;;;2.72;94.02;99076.38;5045765;28;20120;-69
2022/02/24 06:33:09;;;;;;;0.40;0.40;;;;;;;2.91;93.99;99089.22;5063284;28;20059;-70
2022/02/24 06:35:35;;;;;;;0.40;0.40;;;;;;;2.87;94.06;99087.53;5063820;28;20099;-70
2022/02/24 06:38:01;;;;;;;0.40;0.40;;;;;;;2.80;94.32;99088.34;5062312;28;20056;-70
2022/02/24 06:40:27;;;;;;;0.30;0.30;;;;;;;2.82;94.35;99084.97;5063825;28;20017;-69
2022/02/24 06:42:53;;;;;;;0.40;0.40;;;;;;;2.92;94.55;99093.53;5063585;28;20306;-69
2022/02/24 06:45:18;;;;;;;0.38;0.38;;;;;;;2.90;94.73;99078.97;5045567;28;20021;-70
2022/02/24 06:47:44;;;;;;;0.40;0.40;;;;;;;2.99;94.71;99091.81;5063286;28;20338;-70
2022/02/24 06:50:11;;;;;;;0.40;0.40;;;;;;;2.99;94.87;99084.13;5063608;28;20029;-70
2022/02/24 06:52:40;;;;;;;0.40;0.40;;;;;;;3.05;94.62;99080.72;5063174;28;20078;-69
2022/02/24 06:55:07;;;;;;;0.40;0.40;;;;;;;2.99;94.58;99067.91;5045520;28;20032;-70
2022/02/24 06:57:42;;;;;;;0.35;0.35;;;;;;;3.03;94.73;99082.41;5063744;28;20033;-70
2022/02/24 07:00:08;;;;;;;0.30;0.30;;;;;;;3.00;94.66;99074.72;5062313;28;20102;-71
2022/02/24 07:02:34;;;;;;;0.40;0.40;;;;;;;2.96;94.85;99074.72;5063311;28;20022;-70
2022/02/24 07:04:59;;;;;;;0.40;0.40;;;;;;;3.06;94.60;99080.72;5063517;28;20017;-69
2022/02/24 07:07:25;;;;;;;0.40;0.40;;;;;;;2.94;94.53;99061.03;5063538;28;20523;-69
2022/02/24 07:09:50;;;;;;;0.63;0.63;;;;;;;3.05;94.74;99075.59;5063547;28;20029;-69
2022/02/24 07:12:15;;;;;;;0.40;0.40;;;;;;;3.06;94.76;99080.72;5044429;28;20028;-69
2022/02/24 07:14:41;;;;;;;0.40;0.40;;;;;;;3.08;94.42;99080.72;5063399;28;20353;-69
2022/02/24 07:17:06;;;;;;;0.40;0.40;;;;;;;3.03;94.60;99075.59;5062854;28;20081;-68
2022/02/24 07:19:32;;;;;;;0.30;0.30;;;;;;;3.10;94.76;99063.59;5063219;28;20059;-68
2022/02/24 07:21:57;;;;;;;0.40;0.40;;;;;;;3.08;94.50;99067.91;5063345;28;20024;-69
2022/02/24 07:24:23;;;;;;;0.40;0.40;;;;;;;3.04;94.41;99061.91;5063365;28;20025;-68
2022/02/24 07:26:48;;;;;;;0.40;0.40;;;;;;;3.11;94.48;99057.63;5063017;28;20392;-68
2022/02/24 07:29:13;;;;;;;0.40;0.40;;;;;;;3.10;94.67;99058.47;5063086;28;20469;-68
2022/02/24 07:31:39;;;;;;;0.40;0.40;;;;;;;3.16;94.98;99070.47;5062903;28;20049;-68
2022/02/24 07:34:05;;;;;;;0.40;0.40;;;;;;;3.12;94.90;99079.84;5062727;28;20029;-68
2022/02/24 07:36:33;;;;;;;0.40;0.40;;;;;;;3.16;94.92;99089.28;5063019;28;20072;-69
2022/02/24 07:38:58;;;;;;;0.40;0.40;;;;;;;3.21;94.59;99095.25;5063104;28;20025;-68
2022/02/24 07:41:23;;;;;;;0.32;0.32;;;;;;;3.15;94.61;99087.56;5062909;28;20158;-68
2022/02/24 07:43:49;;;;;;;0.40;0.40;;;;;;;3.18;94.64;99095.25;5044924;28;20029;-69
2022/02/24 07:46:15;;;;;;;0.40;0.40;;;;;;;3.19;94.57;99094.41;5062865;28;20083;-68
2022/02/24 07:48:40;;;;;;;0.50;0.50;;;;;;;3.22;94.69;99085.84;5061805;28;20021;-67
2022/02/24 07:51:06;;;;;;;0.40;0.40;;;;;;;3.28;94.84;99090.13;5062435;28;20021;-67
2022/02/24 07:53:31;;;;;;;0.40;0.40;;;;;;;3.30;94.76;99093.53;5061960;28;20025;-66
2022/02/24 07:55:57;;;;;;;0.40;0.40;;;;;;;3.37;94.42;99079.84;5062258;28;20028;-67
2022/02/24 07:58:23;;;;;;;0.40;0.40;;;;;;;3.39;94.41;99075.56;5062157;28;20058;-66
2022/02/24 08:00:48;;;;;;;0.40;0.40;;;;;;;3.44;94.33;99073.00;5062083;28;20039;-67
2022/02/24 08:03:13;;;;;;;0.50;0.50;;;;;;;3.43;94.26;99069.59;5061835;28;20453;-67
2022/02/24 08:05:39;;;;;;;0.40;0.40;;;;;;;3.45;94.09;99073.00;5062154;28;20049;-67
2022/02/24 08:08:04;;;;;;;0.40;0.40;;;;;;;3.45;93.74;99067.88;5062038;28;20028;-68
2022/02/24 08:10:30;;;;;;;0.40;0.40;;;;;;;3.45;93.79;99062.75;5062210;28;20040;-67
2022/02/24 08:12:56;;;;;;;0.40;0.40;;;;;;;3.52;94.01;99067.88;5062224;28;20029;-68
2022/02/24 08:15:22;;;;;;;0.40;0.40;;;;;;;3.55;93.93;99063.59;5062365;28;20024;-69
2022/02/24 08:17:50;;;;;;;0.38;0.38;;;;;;;3.51;93.94;99040.50;5061670;28;20020;-69
2022/02/24 08:20:15;;;;;;;0.40;0.40;;;;;;;3.63;93.41;99050.75;5062069;28;20040;-67
2022/02/24 08:22:45;;;;;;;0.40;0.40;;;;;;;3.58;93.90;99047.31;5062011;28;20381;-68
2022/02/24 08:25:13;;;;;;;0.30;0.30;;;;;;;3.60;93.76;99048.19;5046859;28;20051;-69
2022/02/24 08:27:40;;;;;;;0.40;0.40;;;;;;;3.60;94.02;99043.06;5065573;28;20025;-67
2022/02/24 08:30:09;;;;;;;0.30;0.30;;;;;;;3.66;93.62;99044.78;5065551;28;20044;-69
2022/02/24 08:32:35;;;;;;;0.40;0.40;;;;;;;3.66;93.45;99030.19;5065422;28;20425;-71
2022/02/24 08:35:01;;;;;;;0.50;0.50;;;;;;;3.57;93.62;99013.13;5065430;28;20056;-72
2022/02/24 08:37:27;;;;;;;0.40;0.40;;;;;;;3.66;93.42;99024.22;5065354;28;20040;-74
2022/02/24 08:39:53;;;;;;;0.40;0.40;;;;;;;3.76;93.13;99015.63;5065535;28;20070;-72
2022/02/24 08:42:21;;;;;;;0.40;0.40;;;;;;;3.78;92.31;99013.94;5065247;28;20036;-73
2022/02/24 08:44:46;;;;;;;0.40;0.40;;;;;;;3.74;92.23;99007.06;5065395;28;20387;-71
2022/02/24 08:47:12;;;;;;;0.40;0.40;;;;;;;3.65;93.01;99010.53;5065064;28;20021;-70
2022/02/24 08:49:38;;;;;;;0.35;0.35;;;;;;;3.69;93.05;99013.97;5065270;28;20100;-70
2022/02/24 08:52:05;;;;;;;0.40;0.40;;;;;;;3.69;92.95;99008.81;5065203;28;20070;-71
2022/02/24 08:54:32;;;;;;;0.40;0.40;;;;;;;3.67;92.96;99005.41;5065126;28;20092;-70
2022/02/24 08:56:58;;;;;;;0.40;0.40;;;;;;;3.80;92.75;98995.94;5065069;28;20032;-69
2022/02/24 08:59:24;;;;;;;0.40;0.40;;;;;;;3.74;93.20;98986.53;5064856;28;20205;-70
2022/02/24 09:01:49;;;;;;;0.40;0.40;;;;;;;3.82;93.25;98987.38;5064713;28;20025;-68
2022/02/24 09:04:15;;;;;;;0.40;0.40;;;;;;;3.86;93.66;98995.06;5064553;28;20028;-69
2022/02/24 09:06:41;;;;;;;0.40;0.40;;;;;;;3.89;93.82;98992.47;5064764;28;20056;-69
2022/02/24 09:09:06;;;;;;;0.40;0.40;;;;;;;3.93;93.50;98997.59;5064787;28;20020;-70
2022/02/24 09:11:32;;;;;;;0.40;0.40;;;;;;;4.03;93.48;99001.00;5064402;28;20028;-70
2022/02/24 09:13:57;;;;;;;0.40;0.40;;;;;;;4.10;93.44;98994.13;5064648;28;20048;-71
2022/02/24 09:16:22;;;;;;;0.40;0.40;;;;;;;4.21;93.31;98979.50;5064741;28;20031;-71
2022/02/24 09:18:49;;;;;;;0.40;0.40;;;;;;;4.27;92.68;98964.91;5063924;28;20021;-72
2022/02/24 09:21:14;;;;;;;0.40;0.40;;;;;;;4.35;92.71;98958.00;5064381;28;20033;-72
2022/02/24 09:23:40;;;;;;;0.40;0.40;;;;;;;4.38;92.01;98937.44;5064220;28;20035;-72
2022/02/24 09:26:05;;;;;;;0.40;0.40;;;;;;;4.38;92.10;98937.44;5064155;28;20021;-71
2022/02/24 09:28:31;;;;;;;0.30;0.30;;;;;;;4.41;91.62;98952.81;5064327;28;20155;-73
2022/02/24 09:30:56;;;;;;;0.40;0.40;;;;;;;4.59;92.30;98971.56;5046399;28;20021;-73
2022/02/24 09:33:22;;;;;;;0.40;0.40;;;;;;;4.68;92.59;98968.06;5063985;28;20027;-74
2022/02/24 09:35:47;;;;;;;0.40;0.40;;;;;;;4.81;91.83;98961.09;5062979;28;20045;-73
2022/02/24 09:38:14;;;;;;;0.40;0.40;;;;;;;4.96;92.68;98966.13;5046313;28;20029;-73
2022/02/24 09:40:41;;;;;;;0.40;0.40;;;;;;;5.25;90.82;98973.59;5064100;28;20033;-73
2022/02/24 09:43:06;;;;;;;0.40;0.40;;;;;;;5.48;91.64;98968.19;5064233;28;20041;-73
2022/02/24 09:45:32;;;;;;;0.40;0.40;;;;;;;5.66;91.75;98974.00;5063973;28;20060;-73
2022/02/24 09:48:02;;;;;;;0.40;0.40;;;;;;;5.81;91.52;98962.69;5045750;28;20021;-74
2022/02/24 09:50:29;;;;;;;0.40;0.40;;;;;;;5.90;91.03;98964.28;5064521;28;20063;-74
2022/02/24 09:52:54;;;;;;;0.40;0.40;;;;;;;5.92;90.61;98950.53;5063886;28;20082;-73
2022/02/24 09:55:20;;;;;;;0.40;0.40;;;;;;;5.90;88.89;98978.03;5064133;28;20387;-73
2022/02/24 09:57:45;;;;;;;0.40;0.40;;;;;;;5.79;88.81;98965.28;5063932;28;20124;-71
2022/02/24 10:00:11;;;;;;;0.40;0.40;;;;;;;5.71;87.15;98985.13;5064088;28;20029;-72
2022/02/24 10:02:37;;;;;;;0.40;0.40;;;;;;;5.77;87.54;98989.31;5063303;28;20028;-72
2022/02/24 10:05:10;;;;;;;0.40;0.40;;;;;;;5.66;87.36;98972.28;5045871;28;20017;-71
2022/02/24 10:07:38;;;;;;;0.40;0.40;;;;;;;5.63;86.32;98987.78;5045698;28;20017;-71
2022/02/24 10:10:24;;;;;;;0.40;0.40;;;;;;;5.70;86.51;98997.13;5064041;28;20044;-70
2022/02/24 10:13:11;;;;;;;0.40;0.40;;;;;;;5.70;85.93;99011.75;5045505;28;20045;-70
2022/02/24 10:15:39;;;;;;;0.30;0.30;;;;;;;5.65;85.67;99009.22;5045367;28;20481;-71
2022/02/24 10:18:11;;;;;;;0.40;0.40;;;;;;;5.53;84.35;99024.78;5044813;28;20051;-69
2022/02/24 10:20:39;;;;;;;0.40;0.40;;;;;;;5.48;84.57;99024.00;5063456;28;20028;-69
2022/02/24 10:23:05;;;;;;;0.40;0.40;;;;;;;5.42;84.97;99032.59;5063439;28;20423;-70
2022/02/24 10:25:39;;;;;;;0.40;0.40;;;;;;;5.33;85.02;99031.00;5063429;28;20075;-70
2022/02/24 10:28:05;;;;;;;0.40;0.40;;;;;;;5.19;84.81;99031.94;5063313;28;20113;-70
2022/02/24 10:30:31;;;;;;;0.40;0.40;;;;;;;5.13;85.68;99023.44;5045416;28;20021;-70
2022/02/24 10:32:56;;;;;;;0.40;0.40;;;;;;;4.99;86.36;99020.97;5062968;28;20028;-69
2022/02/24 10:35:34;;;;;;;0.40;0.40;;;;;;;4.89;85.94;99015.91;5063143;28;20045;-69
2022/02/24 10:38:11;;;;;;;0.40;0.40;;;;;;;4.83;86.50;99015.94;5063142;28;20021;-69
2022/02/24 10:40:39;;;;;;;0.40;0.40;;;;;;;4.78;87.10;99008.25;5063300;28;20047;-69
2022/02/24 10:43:08;;;;;;;0.40;0.40;;;;;;;4.75;86.78;99008.28;5063111;28;20087;-70
2022/02/24 10:45:34;;;;;;;0.40;0.40;;;;;;;4.73;87.64;99004.03;5062295;28;20052;-69
2022/02/24 10:48:02;;;;;;;0.40;0.40;;;;;;;4.74;87.66;99004.03;5061900;28;20043;-70
2022/02/24 10:50:51;;;;;;;0.40;0.40;;;;;;;4.75;87.39;99003.16;5062996;28;20025;-69
2022/02/24 10:53:25;;;;;;;0.50;0.50;;;;;;;4.73;88.05;98988.59;5062965;28;20075;-70
2022/02/24 10:56:10;;;;;;;0.40;0.40;;;;;;;4.76;87.21;98991.97;5063082;28;20555;-69
2022/02/24 10:58:44;;;;;;;0.40;0.40;;;;;;;4.77;87.36;99001.44;5063130;28;20055;-70
2022/02/24 11:01:11;;;;;;;0.40;0.40;;;;;;;4.82;87.42;99001.38;5062030;28;20047;-70
2022/02/24 11:03:38;;;;;;;0.40;0.40;;;;;;;4.88;87.36;98998.78;5062753;28;20048;-71
2022/02/24 11:06:05;;;;;;;0.40;0.40;;;;;;;4.88;87.03;98991.06;5062921;28;20029;-69
2022/02/24 11:08:32;;;;;;;0.50;0.50;;;;;;;5.01;87.29;98999.53;5044912;28;20099;-69
2022/02/24 11:10:59;;;;;;;0.40;0.40;;;;;;;5.00;86.48;98984.09;5044935;28;20029;-70
2022/02/24 11:13:26;;;;;;;1.80;1.70;;;;;;;5.06;86.65;98986.63;5062778;28;20047;-70
2022/02/24 11:15:51;;;;;;;0.40;0.40;;;;;;;5.04;86.18;98984.06;5062647;28;20021;-71
2022/02/24 11:18:17;;;;;;;0.40;0.40;;;;;;;5.01;86.41;98983.22;5062365;28;20071;-70
2022/02/24 11:20:42;;;;;;;0.40;0.40;;;;;;;5.03;86.84;98978.94;5062826;28;20021;-70
2022/02/24 11:23:07;;;;;;;0.38;0.38;;;;;;;4.96;86.12;98971.28;5062768;28;20048;-70
2022/02/24 11:25:42;;;;;;;0.40;0.40;;;;;;;5.04;86.48;98981.50;5044834;28;20512;-70
2022/02/24 11:28:09;;;;;;;0.73;0.70;;;;;;;5.11;86.44;98976.28;5062586;28;20035;-70
2022/02/24 11:30:36;;;;;;;0.40;0.40;;;;;;;5.14;86.16;98968.53;5062875;28;20048;-71
2022/02/24 11:33:01;;;;;;;0.40;0.40;;;;;;;5.09;86.25;98963.44;5062276;28;20374;-69
2022/02/24 11:35:29;;;;;;;0.40;0.40;;;;;;;5.06;86.25;98961.72;5062728;28;20586;-71